Chapman, Texas
Current Conditions -  °F | °C
As of 2:35 PM on Friday 21 Nov 2014 (Local Time) from KRFI Reporting Station
Overcast Overcast  
Wind Chill: 60°   Ceiling: 500
Heat Index: 60°   Visibility: 10mi
Dew Point: 60°   Wind: 7mph
Humidity: 100%   Direction: 130°SE
Pressure: 30.13"   Gusts: NA
Location:  32.1449°N, 94.7416°W
Report Text: KRFI 212035Z AUTO 13006KT 10SM OVC005 16/16 A3013 RMK AO2 T01580158
Loading
Personal Weather Stations






























Interactive Weather Map New forecast layout! Learn more

10-Day Weather Forecast

Advertisements
Track Severe Weather on mobile